• Join FlightAware (Why Join?)
  • Login
  • US Flag 
09:27AM EDT


 

Airport Tracker/Info


-or-


 

Live Flight TrackerFlight Track Log ✈ AAL1642 ✈ 08-May-2013 ✈ KORD - KRDU

Flight Track Log - Related Links

Times and Time Zones

All times are in EDT time to prevent confusion due to time zone crossing. See the AAL1642 flight status page for this flight to view local times or setup timezone preferences in your user account.

Time Position Orientation Groundspeed Altitude Reporting Facility
EDT Latitude Longitude Course Direction KTS MPH feet Rate Location/Type
11:50AM 41.9167 -87.8833 163° South 193 222 2,900  Level Chicago TRACON
11:51AM 41.8500 -87.8500 160° South 244 281 4,900 2,400 Climbing Chicago TRACON
11:52AM 41.7620 -87.5277 158° South  Level Estimated
11:53AM 41.6886 -87.4020 153° Southeast  Level Estimated
11:54AM 41.6149 -87.2765 159° South  Level Estimated
11:54AM 41.6814 -87.7469 155° Southeast 288 331 11,400  Level Chicago Center
11:55AM 41.5412 -87.1513 180° South  Level Estimated
11:55AM 41.5894 -87.6842 153° Southeast 306 352 14,500  Level Chicago Center
11:56AM 41.4738 -87.0374 163° South  Level Estimated
11:56AM 41.5014 -87.6250 153° Southeast 348 400 15,800  Level Chicago Center
11:57AM 41.3997 -87.5675 157° South 389 448 17,900 2,040 Climbing Chicago Center
11:58AM 41.2869 -87.5500 173° South 405 466 20,100 1,920 Climbing Chicago Center
11:59AM 41.1694 -87.5258 171° South 422 486 21,900 1,800 Climbing Chicago Center
12:00PM 41.0497 -87.4933 168° South 437 503 23,900 1,980 Climbing Chicago Center
12:01PM 40.9058 -87.4536 168° South 440 506 26,100 1,740 Climbing Chicago Center
12:02PM 40.7819 -87.4236 170° South 451 519 27,500 1,260 Climbing Chicago Center
12:03PM 40.6722 -87.3408 150° Southeast 461 531 28,800 1,440 Climbing Chicago Center
12:04PM 40.5878 -87.2089 130° Southeast 470 541 30,500 1,560 Climbing Chicago Center
12:05PM 40.5031 -87.0736 129° Southeast 462 532 32,100 1,440 Climbing Chicago Center
12:06PM 40.4228 -86.9481 130° Southeast 453 521 33,500 1,320 Climbing Chicago Center
12:07PM 40.3433 -86.8258 130° Southeast 443 510 34,900 720 Climbing Chicago Center
12:08PM 40.2667 -86.7044 130° Southeast 435 501 35,000  Climbing Chicago Center
12:09PM 40.1703 -86.5575 131° Southeast 442 509 35,000  Level Chicago Center
12:10PM 40.1050 -86.4581 131° Southeast 443 510 35,000  Level Indianapolis Center
12:11PM 40.0247 -86.3356 131° Southeast 441 507 35,000  Level Indianapolis Center
12:12PM 39.9439 -86.2125 131° Southeast 444 511 35,000  Level Indianapolis Center
12:13PM 39.8631 -86.0886 130° Southeast 441 507 35,000  Level Indianapolis Center
12:14PM 39.7803 -85.9653 131° Southeast 446 513 35,000  Level Indianapolis Center
12:15PM 39.6989 -85.8425 131° Southeast 446 513 35,000  Level Indianapolis Center
12:16PM 39.6172 -85.7208 131° Southeast 447 514 35,000  Level Indianapolis Center
12:17PM 39.5350 -85.5986 131° Southeast 449 517 35,000  Level Indianapolis Center
12:18PM 39.4372 -85.4536 131° Southeast 447 514 35,000  Level Indianapolis Center
12:20PM 39.3547 -85.3314 131° Southeast 452 520 35,000  Level Indianapolis Center
12:21PM 39.2714 -85.2092 131° Southeast 454 522 35,000  Level Indianapolis Center
12:22PM 39.1881 -85.0878 132° Southeast 453 521 35,000  Level Indianapolis Center
12:23PM 39.1056 -84.9672 131° Southeast 451 519 35,000 -60 Level Indianapolis Center
12:24PM 39.0186 -84.8383 131° Southeast 455 524 34,900 -60 Descending Indianapolis Center
12:25PM 38.9328 -84.7169 132° Southeast 456 525 34,900  Level Indianapolis Center
12:26PM 38.8375 -84.5778 131° Southeast 456 525 35,000  Climbing Indianapolis Center
12:27PM 38.7497 -84.4514 132° Southeast 459 528 34,900  Descending Indianapolis Center
12:28PM 38.6636 -84.3292 132° Southeast 455 524 35,000  Climbing Indianapolis Center
12:29PM 38.6181 -84.1794 111° Southeast 452 520 35,000  Level Indianapolis Center
12:30PM 38.5786 -84.0303 109° East 444 511 35,000  Level Indianapolis Center
12:31PM 38.5408 -83.8789 108° East 446 513 35,000  Level Indianapolis Center
12:32PM 38.5000 -83.7258 109° East 452 520 35,000  Level Indianapolis Center
12:33PM 38.4600 -83.5747 109° East 450 518 35,000  Level Indianapolis Center
12:34PM 38.4133 -83.3969 108° East 451 519 35,000  Level Indianapolis Center
12:35PM 38.3722 -83.2450 109° East 453 521 35,000  Level Indianapolis Center
12:36PM 38.3314 -83.0925 109° East 453 521 35,000  Level Indianapolis Center
12:37PM 38.2900 -82.9389 109° East 457 526 35,000 -420 Level Indianapolis Center
12:38PM 38.2481 -82.7844 109° East 459 528 34,200 -900 Descending Indianapolis Center
12:39PM 38.2053 -82.6286 109° East 462 532 33,200 -960 Descending Indianapolis Center
12:40PM 38.1642 -82.4800 109° East 468 539 32,300 -600 Descending Indianapolis Center
12:41PM 38.1122 -82.2914 109° East 475 547 32,000 -180 Descending Indianapolis Center
12:42PM 38.0703 -82.1358 109° East 471 542 32,000  Level Indianapolis Center
12:43PM 38.0250 -81.9783 110° East 476 548 32,000  Level Indianapolis Center
12:44PM 37.9803 -81.8197 110° East 480 552 32,000  Level Indianapolis Center
12:45PM 37.9353 -81.6589 109° East 485 558 32,000 -420 Level Indianapolis Center
12:46PM 37.8892 -81.4972 110° East 488 562 31,200 -1,260 Descending Indianapolis Center
12:47PM 37.8333 -81.3047 110° East 490 564 29,500 -1,500 Descending Indianapolis Center
12:48PM 37.8089 -81.2328 113° Southeast 491 565 29,000 -360 Descending Washington Center
12:49PM 37.7542 -81.0658 112° Southeast 507 583 29,000  Level Washington Center
12:50PM 37.6883 -80.9089 118° Southeast 507 583 29,000  Level Washington Center
12:51PM 37.6242 -80.7494 117° Southeast 507 583 29,000  Level Washington Center
12:52PM 37.5600 -80.5958 118° Southeast 507 583 29,000  Level Washington Center
12:53PM 37.4842 -80.4625 126° Southeast 512 589 29,000 -180 Level Washington Center
12:54PM 37.4044 -80.3136 124° Southeast 512 589 28,700 -900 Descending Washington Center
12:55PM 37.3203 -80.1700 126° Southeast 512 589 27,300 -1,980 Descending Washington Center
12:56PM 37.2325 -80.0083 124° Southeast 512 589 24,900 -1,740 Descending Washington Center
12:57PM 37.1542 -79.8681 125° Southeast 512 589 23,800 -1,200 Descending Washington Center
12:58PM 37.0775 -79.7311 125° Southeast 506 582 22,500 -1,380 Descending Washington Center
12:59PM 37.0128 -79.6158 125° Southeast 474 545 21,000 -840 Descending Washington Center
01:00PM 36.9458 -79.4903 124° Southeast 456 525 20,900 -420 Descending Washington Center
01:01PM 36.8769 -79.3672 125° Southeast 439 505 20,200 -1,560 Descending Washington Center
01:02PM 36.8075 -79.2472 126° Southeast 439 505 17,800 -2,460 Descending Washington Center
01:03PM 36.7189 -79.1419 136° Southeast 405 466 15,300 -2,280 Descending Washington Center
01:03PM 36.6594 -79.1106 157° South 368 423 14,000 -1,680 Descending Washington Center
01:04PM 36.6369 -79.0914 146° Southeast 398 458 13,600 -2,100 Descending Washington Center
01:05PM 36.5306 -79.0247 153° Southeast 354 407 11,100 -1,860 Descending Washington Center
01:06PM 36.4650 -78.9806 152° Southeast 353 406 10,000 -600 Descending Washington Center
01:07PM 36.3769 -78.9172 150° Southeast 335 386 10,000  Level Washington Center
01:08PM 36.2936 -78.8417 144° Southeast 271 312 10,000 -480 Level Washington Center
01:09PM 36.2528 -78.8014 141° Southeast 276 318 9,100 -1,320 Descending Washington Center
01:09PM 36.2386 -78.7931 155° Southeast 234 269 8,700 -1,320 Descending Washington Center
01:10PM 36.1997 -78.7553 142° Southeast 254 292 7,800 -1,320 Descending Washington Center
01:10PM 36.1833 -78.7444 152° Southeast 236 272 7,400 -1,440 Descending Washington Center
01:11PM 36.1533 -78.6969 128° Southeast 243 280 6,400 -1,320 Descending Washington Center
01:11PM 36.1392 -78.6836 143° Southeast 236 272 6,100 -420 Descending Washington Center
01:12PM 36.1194 -78.6417 120° Southeast 232 267 6,000 -540 Descending Washington Center
01:12PM 36.1053 -78.6206 130° Southeast 216 249 5,600 -1,020 Descending Washington Center
01:13PM 36.0833 -78.5836 126° Southeast 221 254 5,000 -1,140 Descending Washington Center
01:13PM 36.0644 -78.5803 172° South 193 222 4,500 -1,440 Descending Washington Center
01:14PM 36.0239 -78.6172 216° Southwest 177 204 3,200 -1,200 Descending Washington Center
01:15PM 35.9894 -78.6622 227° Southwest 185 213 2,200 -540 Descending Washington Center
01:16PM 35.9528 -78.7069 225° Southwest 177 204 2,100 -420 Descending Washington Center
01:17PM 35.9247 -78.7392 223° Southwest 152 175 1,400 -840 Descending Washington Center
01:18PM 35.8967 -78.7742 225° Southwest 126 145 600 -840 Descending Washington Center
01:20PM 35.8776 -78.7875 223° Southwest  Level Estimated
01:27PM 35.8776 -78.7875 223° Southwest  Level Estimated
01:28PM 35.8776 -78.7875 223° Southwest  Level Estimated
01:29PM 35.8776 -78.7875 223° Southwest  Level Estimated